Time;durP1;ratioP1;P1;durP2;ratioP2;P2;SDS_P1;SDS_P2;PMS_P1;PMS_P2;Temp;Humidity;BMP_temperature;BMP_pressure;BME280_temperature;BME280_humidity;BME280_pressure;Samples;Min_cycle;Max_cycle;Signal;HPM_P1;HPM_P2
2021/05/06 00:01:54;;;;;;;2.05;1.20;;;;;;;4.30;100.00;95392.97;1039463;28;20271;-69
2021/05/06 00:08:23;;;;;;;1.20;1.00;;;;;;;4.48;100.00;95410.97;1054273;28;20348;-68
2021/05/06 00:29:51;;;;;;;2.32;1.40;;;;;;;4.47;100.00;95391.22;1041904;28;20339;-70
2021/05/06 00:32:13;;;;;;;3.66;1.90;;;;;;;4.35;100.00;95408.66;1045460;28;20067;-69
2021/05/06 00:32:56;;;;;;;2.68;1.38;;;;;;;4.34;100.00;95419.28;1046971;28;20062;-69
2021/05/06 00:33:26;;;;;;;3.14;1.10;;;;;;;4.32;100.00;95416.91;1051268;28;20027;-71
2021/05/06 00:33:56;;;;;;;2.85;1.35;;;;;;;4.32;100.00;95414.31;1047237;28;20089;-68
2021/05/06 00:34:27;;;;;;;4.20;1.45;;;;;;;4.33;100.00;95413.31;1046591;28;20036;-69
2021/05/06 00:34:58;;;;;;;4.28;1.33;;;;;;;4.34;100.00;95419.28;1043177;28;20088;-68
2021/05/06 00:35:30;;;;;;;1.30;1.13;;;;;;;4.32;100.00;95411.69;1043953;28;20024;-69
2021/05/06 00:36:01;;;;;;;3.22;1.16;;;;;;;4.32;100.00;95411.69;1038817;28;20036;-71
2021/05/06 00:36:33;;;;;;;2.67;1.50;;;;;;;4.23;100.00;95397.53;1043331;28;20048;-69
2021/05/06 00:37:04;;;;;;;1.76;1.16;;;;;;;4.25;100.00;95401.44;1045400;28;20095;-71
2021/05/06 00:37:44;;;;;;;3.30;1.30;;;;;;;4.25;100.00;95398.06;1042914;28;20099;-69
2021/05/06 00:38:29;;;;;;;2.63;1.45;;;;;;;4.28;100.00;95405.41;1047158;28;20040;-69
2021/05/06 00:39:07;;;;;;;1.42;1.10;;;;;;;4.31;100.00;95415.34;1041865;28;20079;-69
2021/05/06 00:39:47;;;;;;;2.72;1.33;;;;;;;4.30;100.00;95407.78;1038699;28;20056;-68
2021/05/06 00:40:19;;;;;;;3.45;1.23;;;;;;;4.29;100.00;95416.56;1036983;28;20387;-70
2021/05/06 00:44:13;;;;;;;2.20;1.26;;;;;;;4.27;100.00;95408.25;1040485;28;20431;-71
2021/05/06 00:45:27;;;;;;;1.92;1.20;;;;;;;4.21;100.00;95399.56;1037150;28;20137;-69
2021/05/06 00:55:06;;;;;;;3.58;1.36;;;;;;;4.27;100.00;95413.44;1030540;28;20038;-69
2021/05/06 00:57:55;;;;;;;2.52;1.24;;;;;;;4.25;100.00;95416.25;1044466;28;20029;-70
2021/05/06 00:58:52;;;;;;;2.28;1.34;;;;;;;4.16;100.00;95391.69;1042827;28;20076;-70
2021/05/06 01:00:38;;;;;;;2.06;1.18;;;;;;;4.24;100.00;95409.47;1037076;28;20021;-68
2021/05/06 01:03:45;;;;;;;2.94;1.24;;;;;;;4.22;100.00;95403.72;1041898;28;20435;-69
2021/05/06 01:04:35;;;;;;;2.18;1.42;;;;;;;4.07;100.00;95378.25;1048279;28;20029;-70
2021/05/06 01:05:15;;;;;;;4.12;1.44;;;;;;;4.09;100.00;95381.44;1041871;28;20028;-70
2021/05/06 01:05:53;;;;;;;;;;;;;;;4.18;100.00;95402.59;1046637;28;20793;-69
2021/05/06 01:06:25;;;;;;;1.54;1.20;;;;;;;4.16;100.00;95402.06;1046813;28;19909;-69
2021/05/06 01:08:27;;;;;;;2.50;1.40;;;;;;;4.11;100.00;95392.34;1040060;28;20076;-69
2021/05/06 01:09:04;;;;;;;1.98;1.45;;;;;;;4.15;100.00;95395.28;1038641;28;20048;-69
2021/05/06 01:09:46;;;;;;;4.02;1.46;;;;;;;4.11;100.00;95388.97;1032416;28;20090;-71
2021/05/06 01:11:32;;;;;;;3.08;1.60;;;;;;;4.12;100.00;95391.31;1049777;28;20417;-70
2021/05/06 01:12:04;;;;;;;5.10;1.46;;;;;;;4.08;100.00;95379.03;1041710;28;20074;-69
2021/05/06 01:12:34;;;;;;;4.80;1.60;;;;;;;4.15;100.00;95387.50;1038666;28;20037;-70
2021/05/06 01:13:05;;;;;;;4.32;1.40;;;;;;;4.14;100.00;95386.69;1035724;28;20690;-68
2021/05/06 01:13:36;;;;;;;2.15;1.30;;;;;;;4.15;100.00;95390.09;1039431;28;20029;-70
2021/05/06 01:14:09;;;;;;;1.65;1.38;;;;;;;4.16;100.00;95387.28;1042529;28;20040;-69
2021/05/06 01:14:39;;;;;;;6.30;1.55;;;;;;;4.10;100.00;95377.03;1034940;28;20913;-69
2021/05/06 01:15:10;;;;;;;3.83;1.55;;;;;;;4.18;100.00;95385.22;1030880;28;20288;-69
2021/05/06 01:15:41;;;;;;;2.60;1.40;;;;;;;4.19;100.00;95386.81;1030178;28;20038;-68
2021/05/06 01:16:14;;;;;;;6.66;1.58;;;;;;;4.19;100.00;95386.81;1030814;28;20069;-70
2021/05/06 01:16:44;;;;;;;2.17;1.30;;;;;;;4.18;100.00;95384.44;1038816;28;20088;-71
2021/05/06 01:17:14;;;;;;;5.05;1.92;;;;;;;4.20;100.00;95387.59;1038164;28;20025;-70
2021/05/06 01:17:45;;;;;;;1.73;1.13;;;;;;;4.20;100.00;95382.41;1038641;28;20029;-68
2021/05/06 01:18:15;;;;;;;2.30;1.40;;;;;;;4.16;100.00;95376.09;1038505;28;20033;-69
2021/05/06 01:18:46;;;;;;;3.92;1.60;;;;;;;4.21;100.00;95384.75;1039690;28;20026;-70
2021/05/06 01:19:16;;;;;;;5.85;1.90;;;;;;;4.23;100.00;95381.94;1042932;28;20021;-69
2021/05/06 01:19:47;;;;;;;3.88;1.80;;;;;;;4.23;100.00;95377.53;1038297;28;20083;-71
2021/05/06 01:20:17;;;;;;;4.55;1.55;;;;;;;4.21;100.00;95376.19;1038611;28;20021;-69
2021/05/06 01:20:51;;;;;;;2.55;1.35;;;;;;;4.25;100.00;95385.09;1034408;28;20026;-69
2021/05/06 01:21:24;;;;;;;2.02;1.40;;;;;;;4.25;100.00;95382.47;1030583;28;20030;-70
2021/05/06 01:21:55;;;;;;;5.14;1.26;;;;;;;4.27;100.00;95383.06;1030479;28;20495;-70
2021/05/06 01:22:26;;;;;;;1.85;1.50;;;;;;;4.21;100.00;95368.41;1027320;28;20125;-70
2021/05/06 01:22:56;;;;;;;1.98;1.33;;;;;;;4.27;100.00;95377.06;1031555;28;20569;-70
2021/05/06 01:23:28;;;;;;;3.20;1.67;;;;;;;4.30;100.00;95381.81;1037235;28;20092;-71
2021/05/06 01:23:59;;;;;;;2.30;1.52;;;;;;;4.27;100.00;95372.66;1042377;28;20725;-68
2021/05/06 01:24:30;;;;;;;2.85;1.70;;;;;;;4.20;100.00;95362.41;1043157;28;20033;-68
2021/05/06 01:25:00;;;;;;;1.98;1.50;;;;;;;4.30;100.00;95377.41;1038200;28;20033;-69
2021/05/06 01:25:31;;;;;;;6.32;1.90;;;;;;;4.30;100.00;95377.41;1038117;28;20534;-70
2021/05/06 01:26:17;;;;;;;3.25;1.70;;;;;;;4.31;100.00;95378.97;1038860;28;20026;-70
2021/05/06 01:27:02;;;;;;;1.62;1.28;;;;;;;4.32;100.00;95380.53;1046609;28;20473;-69
2021/05/06 01:27:40;;;;;;;4.62;1.58;;;;;;;4.32;100.00;95380.53;1050816;28;20028;-68
2021/05/06 01:28:14;;;;;;;3.24;1.50;;;;;;;4.31;100.00;95373.00;1046694;28;20082;-70
2021/05/06 01:28:47;;;;;;;6.65;1.80;;;;;;;4.23;100.00;95361.16;1043746;28;20120;-71
2021/05/06 01:29:31;;;;;;;2.40;1.40;;;;;;;4.31;100.00;95373.00;1042610;28;20373;-69
2021/05/06 01:30:49;;;;;;;4.22;1.72;;;;;;;4.32;100.00;95375.34;1031951;28;20034;-70
2021/05/06 01:31:23;;;;;;;4.18;1.60;;;;;;;4.31;100.00;95371.19;1039023;28;20021;-66
2021/05/06 01:32:43;;;;;;;4.30;1.67;;;;;;;4.34;100.00;95375.13;1041771;28;20148;-71
2021/05/06 01:32:50;;;;;;;2.05;1.35;;;;;;;4.29;100.00;95373.22;1032083;28;20297;-71
2021/05/06 01:34:09;;;;;;;4.07;1.27;;;;;;;4.33;100.00;95374.34;1043695;28;20499;-70
2021/05/06 01:34:41;;;;;;;4.18;1.50;;;;;;;4.34;100.00;95373.31;1034808;28;20334;-68
2021/05/06 01:35:20;;;;;;;3.42;1.44;;;;;;;4.31;100.00;95365.97;1033065;28;20292;-70
2021/05/06 01:36:02;;;;;;;1.98;1.33;;;;;;;4.36;100.00;95370.47;1026410;28;20725;-69
2021/05/06 01:36:44;;;;;;;2.55;1.13;;;;;;;4.37;100.00;95370.25;1046816;28;20263;-71
2021/05/06 01:37:47;;;;;;;4.03;1.55;;;;;;;4.36;100.00;95360.09;1039819;28;20314;-70
2021/05/06 01:38:22;;;;;;;;;;;;;;;4.40;100.00;95366.41;1041037;28;20398;-68
2021/05/06 01:39:58;;;;;;;3.74;1.52;;;;;;;4.39;100.00;95365.63;1044520;28;20281;-70
2021/05/06 01:41:02;;;;;;;2.96;1.26;;;;;;;4.33;100.00;95357.97;1035747;28;20022;-69
2021/05/06 01:42:11;;;;;;;2.58;1.38;;;;;;;4.38;100.00;95368.44;1041804;28;20033;-68
2021/05/06 01:42:47;;;;;;;2.90;1.62;;;;;;;4.36;100.00;95373.06;1046994;28;20252;-69
2021/05/06 01:43:34;;;;;;;5.40;1.60;;;;;;;4.36;100.00;95360.91;1046976;28;20024;-68
2021/05/06 01:44:13;;;;;;;3.14;1.50;;;;;;;4.37;100.00;95361.69;1041526;28;20068;-68
2021/05/06 01:45:50;;;;;;;2.75;1.50;;;;;;;4.34;100.00;95362.13;1036509;28;20847;-70
2021/05/06 01:46:34;;;;;;;2.92;1.38;;;;;;;4.32;100.00;95354.56;1037406;28;20372;-67
2021/05/06 01:48:01;;;;;;;1.74;1.26;;;;;;;4.33;100.00;95355.38;1040812;28;20045;-70
2021/05/06 01:50:41;;;;;;;3.66;1.68;;;;;;;4.23;100.00;95346.38;1042494;28;20036;-70
2021/05/06 01:57:30;;;;;;;2.96;1.34;;;;;;;4.33;100.00;95360.56;1040960;28;20029;-71
2021/05/06 01:57:38;;;;;;;3.60;1.72;;;;;;;4.32;100.00;95349.38;1043547;28;20032;-70
2021/05/06 01:58:18;;;;;;;5.58;1.48;;;;;;;4.34;100.00;95346.56;1043279;28;20037;-67
2021/05/06 01:58:56;;;;;;;4.00;1.80;;;;;;;4.34;100.00;95352.53;1042437;28;20031;-70
2021/05/06 01:59:48;;;;;;;1.74;1.50;;;;;;;4.32;100.00;95349.38;1040260;28;20116;-69
2021/05/06 02:00:21;;;;;;;3.25;1.58;;;;;;;4.33;100.00;95347.59;1034679;28;20037;-70
2021/05/06 02:00:57;;;;;;;6.10;1.65;;;;;;;4.33;100.00;95350.97;1040676;28;20299;-70
2021/05/06 02:01:30;;;;;;;3.98;1.86;;;;;;;4.33;100.00;95348.38;1036642;28;20272;-69
2021/05/06 02:02:01;;;;;;;3.22;1.60;;;;;;;4.33;100.00;95350.97;1041468;28;20443;-69
2021/05/06 02:02:31;;;;;;;4.03;1.63;;;;;;;4.29;100.00;95344.63;1043452;28;20025;-70
2021/05/06 02:03:02;;;;;;;6.68;1.90;;;;;;;4.32;100.00;95344.19;1044268;28;20462;-70
2021/05/06 02:03:35;;;;;;;3.72;1.73;;;;;;;4.34;100.00;95346.56;1043742;28;20059;-70
2021/05/06 02:04:08;;;;;;;5.50;2.04;;;;;;;4.27;100.00;95333.72;1047426;28;20039;-71
2021/05/06 02:04:39;;;;;;;3.92;1.58;;;;;;;4.36;100.00;95345.31;1043079;28;20044;-70
2021/05/06 02:05:10;;;;;;;3.42;1.73;;;;;;;4.38;100.00;95348.44;1044129;28;20045;-69
2021/05/06 02:05:40;;;;;;;5.03;2.33;;;;;;;4.36;100.00;95337.53;1042900;28;20048;-71
2021/05/06 02:06:10;;;;;;;5.60;2.30;;;;;;;4.37;100.00;95349.47;1035792;28;20038;-70
2021/05/06 02:06:41;;;;;;;3.80;1.33;;;;;;;4.30;100.00;95335.84;1039752;28;20028;-66
2021/05/06 02:07:11;;;;;;;3.90;1.83;;;;;;;4.38;100.00;95343.25;1035254;28;20036;-70
2021/05/06 02:07:43;;;;;;;5.45;1.52;;;;;;;4.41;100.00;95342.00;1036050;28;20401;-71
2021/05/06 02:08:14;;;;;;;3.97;1.63;;;;;;;4.41;100.00;95342.78;1035030;28;20034;-69
2021/05/06 02:08:47;;;;;;;3.28;1.75;;;;;;;4.43;100.00;95348.56;1039499;28;20272;-70
2021/05/06 02:09:21;;;;;;;2.80;1.46;;;;;;;4.39;100.00;95338.84;1039696;28;20063;-71
2021/05/06 02:09:51;;;;;;;2.72;1.35;;;;;;;4.43;100.00;95334.78;1035508;28;20057;-68
2021/05/06 02:10:24;;;;;;;3.35;1.23;;;;;;;4.45;100.00;95345.72;1047492;28;20290;-71
2021/05/06 02:11:01;;;;;;;4.82;1.80;;;;;;;4.46;100.00;95342.06;1044236;28;20036;-67
2021/05/06 02:11:34;;;;;;;2.90;1.63;;;;;;;4.46;100.00;95344.69;1042667;28;20307;-69
2021/05/06 02:12:05;;;;;;;3.60;1.54;;;;;;;4.47;100.00;95339.25;1041721;28;20271;-70
2021/05/06 02:12:37;;;;;;;1.95;1.38;;;;;;;4.48;100.00;95338.22;1040837;28;20164;-69
2021/05/06 02:13:08;;;;;;;1.90;1.70;;;;;;;4.49;100.00;95339.81;1047482;28;20349;-68
2021/05/06 02:13:39;;;;;;;3.65;1.65;;;;;;;4.48;100.00;95342.66;1047756;28;20247;-70
2021/05/06 02:14:10;;;;;;;4.00;1.65;;;;;;;4.49;100.00;95346.81;1038930;28;20740;-70
2021/05/06 02:14:46;;;;;;;4.32;1.83;;;;;;;4.48;100.00;95343.44;1040679;28;20049;-70
2021/05/06 02:15:23;;;;;;;3.28;1.55;;;;;;;4.43;100.00;95334.78;1038666;28;20368;-69
2021/05/06 02:15:58;;;;;;;3.17;1.65;;;;;;;4.42;100.00;95336.56;1043127;28;20298;-70
2021/05/06 02:16:37;;;;;;;2.53;1.20;;;;;;;4.52;100.00;95350.75;1041530;28;20339;-69
2021/05/06 02:17:08;;;;;;;3.65;1.50;;;;;;;4.54;100.00;95351.31;1038905;28;20311;-69
2021/05/06 02:17:40;;;;;;;3.58;1.67;;;;;;;4.48;100.00;95343.44;1037709;28;20310;-70
2021/05/06 02:18:10;;;;;;;4.10;1.90;;;;;;;4.55;100.00;95350.28;1034989;28;20044;-69
2021/05/06 02:18:41;;;;;;;3.72;1.70;;;;;;;4.55;100.00;95351.06;1039280;28;20260;-69
2021/05/06 02:19:13;;;;;;;4.95;1.60;;;;;;;4.44;100.00;95334.53;1035113;28;20383;-70
2021/05/06 02:19:47;;;;;;;2.95;1.50;;;;;;;4.55;100.00;95347.69;1039679;28;20044;-67
2021/05/06 02:20:17;;;;;;;2.42;1.48;;;;;;;4.59;100.00;95346.19;1042620;28;20267;-68
2021/05/06 02:20:49;;;;;;;2.75;1.40;;;;;;;4.60;100.00;95350.41;1041542;28;20276;-70
2021/05/06 02:21:20;;;;;;;4.57;1.42;;;;;;;4.49;100.00;95323.44;1051713;28;20027;-70
2021/05/06 02:21:51;;;;;;;2.47;1.70;;;;;;;4.61;100.00;95346.75;1047489;28;20295;-70
2021/05/06 02:22:22;;;;;;;4.60;1.85;;;;;;;4.60;100.00;95347.78;1047377;28;20024;-70
2021/05/06 02:22:52;;;;;;;3.65;1.60;;;;;;;4.59;100.00;95343.59;1039340;28;20395;-70
2021/05/06 02:23:22;;;;;;;4.00;1.73;;;;;;;4.59;100.00;95348.81;1039188;28;20014;-70
2021/05/06 02:23:53;;;;;;;2.38;1.30;;;;;;;4.60;100.00;95345.19;1035308;28;20030;-69
2021/05/06 02:24:23;;;;;;;5.18;1.45;;;;;;;4.62;100.00;95343.13;1035587;28;20275;-69
2021/05/06 02:24:54;;;;;;;3.70;1.27;;;;;;;4.61;100.00;95344.94;1043234;28;20021;-69
2021/05/06 02:25:24;;;;;;;2.83;1.52;;;;;;;4.62;100.00;95343.13;1038415;28;20029;-69
2021/05/06 02:25:55;;;;;;;3.15;1.65;;;;;;;4.62;100.00;95353.53;1035304;28;20037;-69
2021/05/06 02:26:25;;;;;;;4.60;2.00;;;;;;;4.57;100.00;95346.44;1039227;28;20387;-68
2021/05/06 02:26:55;;;;;;;3.22;1.48;;;;;;;4.54;100.00;95335.75;1039406;28;20494;-69
2021/05/06 02:27:26;;;;;;;3.95;1.75;;;;;;;4.53;100.00;95336.75;1039192;28;20025;-69
2021/05/06 02:27:56;;;;;;;3.35;1.83;;;;;;;4.59;100.00;95348.81;1043541;28;20021;-69
2021/05/06 02:28:27;;;;;;;4.88;1.70;;;;;;;4.60;100.00;95342.59;1043250;28;20025;-68
2021/05/06 02:28:57;;;;;;;4.07;1.45;;;;;;;4.61;100.00;95341.56;1039355;28;20029;-69
2021/05/06 02:29:28;;;;;;;5.25;1.55;;;;;;;4.60;100.00;95350.41;1039235;28;20026;-71
2021/05/06 02:29:58;;;;;;;2.92;1.60;;;;;;;4.59;100.00;95352.19;1043485;28;20028;-70
2021/05/06 02:30:29;;;;;;;2.70;1.50;;;;;;;4.42;100.00;95317.59;1047627;28;20143;-71
2021/05/06 02:30:59;;;;;;;4.25;1.75;;;;;;;4.57;100.00;95348.25;1039348;28;20025;-71
2021/05/06 02:31:30;;;;;;;5.03;1.65;;;;;;;4.56;100.00;95339.69;1038938;28;20685;-70
2021/05/06 02:32:00;;;;;;;4.38;1.50;;;;;;;4.56;100.00;95339.69;1039377;28;20025;-68
2021/05/06 02:32:31;;;;;;;2.47;1.50;;;;;;;4.50;100.00;95340.63;1039436;28;20029;-70
2021/05/06 02:33:05;;;;;;;3.13;1.42;;;;;;;4.55;100.00;95339.91;1043702;28;20025;-71
2021/05/06 02:33:36;;;;;;;6.72;1.80;;;;;;;4.54;100.00;95335.75;1046726;28;20042;-70
2021/05/06 02:34:06;;;;;;;5.03;1.48;;;;;;;4.54;100.00;95341.72;1043549;28;20795;-71
2021/05/06 02:34:37;;;;;;;3.67;1.23;;;;;;;4.53;100.00;95328.94;1044100;28;20025;-70
2021/05/06 02:35:07;;;;;;;3.05;1.65;;;;;;;4.51;100.00;95344.00;1049319;28;20035;-69
2021/05/06 02:35:38;;;;;;;3.55;1.38;;;;;;;4.51;100.00;95338.81;1043187;28;20027;-69
2021/05/06 02:36:09;;;;;;;3.38;1.27;;;;;;;4.43;100.00;95327.00;1043417;28;20636;-69
2021/05/06 02:36:40;;;;;;;3.90;1.58;;;;;;;4.48;100.00;95338.22;1034826;28;20300;-70
2021/05/06 02:37:10;;;;;;;3.42;1.63;;;;;;;4.48;100.00;95338.22;1031644;28;20683;-70
2021/05/06 02:37:41;;;;;;;5.30;1.85;;;;;;;4.47;100.00;95344.47;1039210;28;20087;-68
2021/05/06 02:38:12;;;;;;;3.58;1.80;;;;;;;4.47;100.00;95335.88;1035255;28;20545;-70
2021/05/06 02:38:42;;;;;;;5.18;2.38;;;;;;;4.39;100.00;95324.06;1035055;28;20022;-69
2021/05/06 02:39:13;;;;;;;3.60;1.63;;;;;;;4.46;100.00;95337.69;1035123;28;20053;-70
2021/05/06 02:39:45;;;;;;;4.60;1.48;;;;;;;4.45;100.00;95335.31;1035123;28;20026;-69
2021/05/06 02:40:16;;;;;;;3.38;1.33;;;;;;;4.42;100.00;95331.38;1039095;28;20040;-70
2021/05/06 02:40:46;;;;;;;5.15;1.83;;;;;;;4.42;100.00;95333.97;1035550;28;20291;-68
2021/05/06 02:41:16;;;;;;;5.47;1.70;;;;;;;4.42;100.00;95338.38;1035241;28;20076;-70
2021/05/06 02:41:47;;;;;;;2.97;1.75;;;;;;;4.34;100.00;95325.78;1034813;28;20022;-71
2021/05/06 02:42:18;;;;;;;4.82;1.90;;;;;;;4.31;100.00;95321.84;1039543;28;20104;-70
2021/05/06 02:42:49;;;;;;;3.13;1.77;;;;;;;4.39;100.00;95337.06;1039455;28;20828;-68
2021/05/06 02:43:19;;;;;;;3.60;1.65;;;;;;;4.39;100.00;95338.84;1039482;28;20025;-69
2021/05/06 02:43:49;;;;;;;5.85;1.63;;;;;;;4.39;100.00;95334.47;1043043;28;20069;-68
2021/05/06 02:44:20;;;;;;;2.85;1.40;;;;;;;4.39;100.00;95336.25;1043600;28;20021;-69
2021/05/06 02:44:53;;;;;;;4.97;1.63;;;;;;;4.38;100.00;95332.09;1043405;28;20036;-69
2021/05/06 02:45:24;;;;;;;3.22;1.60;;;;;;;4.37;100.00;95330.50;1046741;28;20115;-70
2021/05/06 02:45:54;;;;;;;3.90;2.15;;;;;;;4.36;100.00;95324.53;1042762;28;20365;-69
2021/05/06 02:46:26;;;;;;;2.13;1.70;;;;;;;4.39;100.00;95329.25;1038659;28;20491;-70
2021/05/06 02:46:57;;;;;;;7.05;1.90;;;;;;;4.35;100.00;95322.16;1043335;28;20530;-70
2021/05/06 02:47:28;;;;;;;3.33;1.63;;;;;;;4.42;100.00;95330.59;1035247;28;20265;-70
2021/05/06 02:47:59;;;;;;;4.20;1.52;;;;;;;4.41;100.00;95335.00;1035467;28;20273;-70
2021/05/06 02:48:29;;;;;;;4.18;2.17;;;;;;;4.41;100.00;95336.81;1039088;28;20256;-68
2021/05/06 02:49:00;;;;;;;4.82;1.35;;;;;;;4.42;100.00;95333.97;1039338;28;20028;-67
2021/05/06 02:49:30;;;;;;;2.10;1.30;;;;;;;4.41;100.00;95327.22;1039310;28;20025;-69
2021/05/06 02:50:01;;;;;;;4.10;1.73;;;;;;;4.43;100.00;95330.38;1035293;28;20030;-68
2021/05/06 02:50:31;;;;;;;5.35;1.55;;;;;;;4.41;100.00;95327.22;1043048;28;20025;-69
2021/05/06 02:51:03;;;;;;;3.03;1.30;;;;;;;4.43;100.00;95332.97;1043449;28;20418;-70
2021/05/06 02:51:37;;;;;;;4.10;1.48;;;;;;;4.40;100.00;95323.03;1043471;28;20075;-70
2021/05/06 02:52:12;;;;;;;2.70;1.30;;;;;;;4.42;100.00;95322.78;1039003;28;20283;-71
2021/05/06 02:53:36;;;;;;;4.30;2.00;;;;;;;4.42;100.00;95328.78;1035233;28;20261;-69
2021/05/06 02:54:07;;;;;;;2.03;1.30;;;;;;;4.41;100.00;95332.41;1035006;28;20284;-70
2021/05/06 02:54:41;;;;;;;5.00;1.88;;;;;;;4.41;100.00;95327.22;1034923;28;20279;-69
2021/05/06 02:57:54;;;;;;;5.85;1.67;;;;;;;4.43;100.00;95332.19;1038338;28;20284;-69
2021/05/06 03:03:04;;;;;;;1.92;1.35;;;;;;;4.38;100.00;95319.88;1046818;28;20261;-69
2021/05/06 03:03:43;;;;;;;3.55;1.45;;;;;;;4.46;100.00;95326.50;1042341;28;20322;-70
2021/05/06 03:04:13;;;;;;;5.16;1.80;;;;;;;4.44;100.00;95318.16;1043193;28;20286;-70
2021/05/06 03:04:46;;;;;;;5.80;1.63;;;;;;;4.44;100.00;95318.16;1038998;28;20112;-69
2021/05/06 03:05:18;;;;;;;2.83;1.50;;;;;;;4.41;100.00;95316.03;1042556;28;20044;-69
2021/05/06 03:05:54;;;;;;;4.86;1.72;;;;;;;4.45;100.00;95317.13;1039018;28;20645;-72
2021/05/06 03:06:27;;;;;;;5.13;1.67;;;;;;;4.47;100.00;95326.28;1037789;28;20025;-71
2021/05/06 03:07:01;;;;;;;3.20;1.38;;;;;;;4.46;100.00;95314.31;1036337;28;20355;-69
2021/05/06 03:07:33;;;;;;;2.88;1.25;;;;;;;4.43;100.00;95306.22;1039678;28;20264;-68
2021/05/06 03:08:08;;;;;;;3.38;1.40;;;;;;;4.45;100.00;95307.53;1045215;28;20320;-70
2021/05/06 03:08:42;;;;;;;4.28;2.24;;;;;;;4.52;100.00;95322.19;1047454;28;20024;-68
2021/05/06 03:09:49;;;;;;;4.20;1.60;;;;;;;4.52;100.00;95317.78;1047207;28;20029;-69
2021/05/06 03:10:38;;;;;;;4.00;1.83;;;;;;;4.43;100.00;95304.41;1046968;28;20294;-68
2021/05/06 03:11:49;;;;;;;5.97;1.73;;;;;;;4.55;100.00;95316.53;1043560;28;20636;-68
2021/05/06 03:12:35;;;;;;;4.18;1.68;;;;;;;4.57;100.00;95315.28;1041203;28;20318;-69
2021/05/06 03:22:39;;;;;;;6.38;2.03;;;;;;;4.63;100.00;95329.94;1035847;28;21254;-69
2021/05/06 03:23:04;;;;;;;4.50;1.44;;;;;;;4.64;100.00;95325.50;1042223;28;20592;-68
2021/05/06 03:23:35;;;;;;;2.92;1.75;;;;;;;4.63;100.00;95335.13;1043371;28;20044;-70
2021/05/06 03:24:06;;;;;;;4.35;1.52;;;;;;;4.60;100.00;95319.22;1043344;28;20032;-68
2021/05/06 03:24:36;;;;;;;4.45;1.55;;;;;;;4.68;100.00;95326.63;1050398;28;20025;-69
2021/05/06 03:25:09;;;;;;;4.70;1.83;;;;;;;4.69;100.00;95330.78;1046693;28;20028;-70
2021/05/06 03:25:40;;;;;;;5.10;1.54;;;;;;;4.70;100.00;95334.97;1047374;28;20036;-69
2021/05/06 03:26:12;;;;;;;3.05;1.63;;;;;;;4.70;100.00;95334.97;1047048;28;20051;-71
2021/05/06 03:26:43;;;;;;;3.95;1.70;;;;;;;4.70;100.00;95329.78;1043906;28;20037;-71
2021/05/06 03:27:16;;;;;;;3.55;1.50;;;;;;;4.69;100.00;95329.00;1043414;28;20286;-70
2021/05/06 03:27:52;;;;;;;6.80;2.22;;;;;;;4.63;100.00;95313.56;1034983;28;20809;-67
2021/05/06 03:28:30;;;;;;;3.22;1.40;;;;;;;4.70;100.00;95329.78;1037641;28;20025;-71
2021/05/06 03:29:05;;;;;;;7.88;1.68;;;;;;;4.69;100.00;95329.00;1043326;28;20037;-70
2021/05/06 03:29:40;;;;;;;2.66;1.40;;;;;;;4.69;100.00;95328.19;1039065;28;20029;-71
2021/05/06 03:32:30;;;;;;;3.14;1.66;;;;;;;4.70;100.00;95325.34;1036481;28;20025;-70
2021/05/06 03:32:40;;;;;;;7.43;1.90;;;;;;;4.71;100.00;95331.34;1034773;28;20082;-70
2021/05/06 03:42:07;;;;;;;6.10;1.70;;;;;;;4.63;100.00;95331.75;1042656;28;21695;-69
2021/05/06 03:42:56;;;;;;;4.40;1.80;;;;;;;4.59;100.00;95322.81;1045624;28;20419;-69
2021/05/06 03:43:51;;;;;;;6.75;2.45;;;;;;;4.58;100.00;95318.66;1046315;28;20024;-68
2021/05/06 03:44:49;;;;;;;2.92;1.20;;;;;;;4.65;100.00;95330.47;1043092;28;20303;-70
2021/05/06 03:46:38;;;;;;;5.72;1.77;;;;;;;4.67;100.00;95335.44;1043151;28;20314;-70
2021/05/06 04:12:33;;;;;;;5.28;1.52;;;;;;;4.73;100.00;95344.91;1039033;28;20096;-71
2021/05/06 04:14:54;;;;;;;2.58;1.40;;;;;;;4.70;100.00;95335.75;1047273;28;20084;-70
2021/05/06 04:18:41;;;;;;;2.28;1.40;;;;;;;4.68;100.00;95340.38;1032308;28;20039;-70
2021/05/06 04:18:41;;;;;;;4.64;1.30;;;;;;;4.68;100.00;95344.81;1034557;28;20890;-69
2021/05/06 04:21:28;;;;;;;5.96;1.82;;;;;;;4.68;100.00;95345.59;1046743;28;20493;-69
2021/05/06 04:25:35;;;;;;;4.08;1.32;;;;;;;4.57;100.00;95322.28;1039015;28;20462;-68
2021/05/06 04:25:45;;;;;;;6.36;1.80;;;;;;;4.67;100.00;95340.63;1034957;28;20108;-70
2021/05/06 04:27:02;;;;;;;3.24;1.40;;;;;;;4.65;100.00;95337.47;1034782;28;20064;-70
2021/05/06 04:35:37;;;;;;;10.70;2.56;;;;;;;4.65;100.00;95308.88;1033744;28;20041;-70
2021/05/06 04:36:14;;;;;;;10.60;2.10;;;;;;;4.75;100.00;95322.03;1030522;28;20373;-71
2021/05/06 04:37:15;;;;;;;5.50;1.58;;;;;;;4.76;100.00;95310.63;1038660;28;20033;-73
2021/05/06 04:37:47;;;;;;;3.50;1.58;;;;;;;4.71;100.00;95306.13;1038816;28;20062;-72
2021/05/06 04:38:22;;;;;;;18.10;2.92;;;;;;;4.75;100.00;95306.44;1030470;28;20054;-70
2021/05/06 04:38:52;;;;;;;8.75;2.25;;;;;;;4.88;100.00;95326.16;1030532;28;20269;-72
2021/05/06 04:39:33;;;;;;;6.70;2.28;;;;;;;4.91;100.00;95323.09;1035382;28;20273;-71
2021/05/06 04:41:41;;;;;;;36.85;4.05;;;;;;;4.96;100.00;95320.53;1043052;28;20271;-70
2021/05/06 04:54:03;;;;;;;5.82;2.28;;;;;;;5.03;100.00;95329.00;1047833;28;20263;-71
2021/05/06 04:54:44;;;;;;;7.97;2.17;;;;;;;5.06;100.00;95332.91;1054269;28;20303;-72
2021/05/06 04:55:29;;;;;;;;;;;;;;;5.04;100.00;95340.19;1047094;28;20814;-70
2021/05/06 04:57:37;;;;;;;9.63;2.20;;;;;;;4.99;100.00;95333.06;1049402;28;20450;-72
2021/05/06 05:03:58;;;;;;;9.40;2.25;;;;;;;5.03;100.00;95328.19;1034190;28;20283;-71
2021/05/06 05:04:31;;;;;;;4.53;2.00;;;;;;;5.02;100.00;95322.19;1046846;28;20764;-72
2021/05/06 05:05:06;;;;;;;7.10;1.75;;;;;;;5.03;100.00;95312.59;1037952;28;20334;-71
2021/05/06 05:05:38;;;;;;;15.40;2.67;;;;;;;5.11;100.00;95312.19;1044397;28;20649;-72
2021/05/06 05:06:11;;;;;;;5.90;1.80;;;;;;;5.10;100.00;95313.22;1042727;28;20279;-70
2021/05/06 05:06:54;;;;;;;6.25;2.15;;;;;;;5.12;100.00;95316.38;1041562;28;20094;-71
2021/05/06 05:07:38;;;;;;;3.97;1.88;;;;;;;5.12;100.00;95309.34;1044061;28;20792;-71
2021/05/06 05:08:13;;;;;;;3.05;2.00;;;;;;;5.13;100.00;95307.53;1046746;28;20700;-73
2021/05/06 05:08:52;;;;;;;5.15;2.00;;;;;;;5.18;100.00;95307.63;1047083;28;20271;-70
2021/05/06 05:11:16;;;;;;;4.00;2.63;;;;;;;5.23;100.00;95312.91;1047054;28;20027;-72
2021/05/06 05:18:08;;;;;;;4.32;1.95;;;;;;;5.61;100.00;95303.50;1038556;28;20276;-72
2021/05/06 05:20:20;;;;;;;3.35;2.15;;;;;;;5.87;100.00;95323.59;1038455;28;20352;-71
2021/05/06 05:23:24;;;;;;;4.32;2.00;;;;;;;5.90;100.00;95320.53;1042782;28;20255;-72
2021/05/06 05:23:38;;;;;;;4.68;1.70;;;;;;;6.11;100.00;95313.75;1039367;28;20257;-71
2021/05/06 05:24:17;;;;;;;4.40;1.40;;;;;;;6.10;100.00;95322.59;1037023;28;20279;-70
2021/05/06 05:24:56;;;;;;;11.77;2.63;;;;;;;6.09;100.00;95325.44;1034763;28;20292;-66
2021/05/06 05:25:39;;;;;;;3.83;1.80;;;;;;;6.09;100.00;95333.25;1037625;28;20280;-70
2021/05/06 05:26:11;;;;;;;2.95;1.65;;;;;;;6.14;100.00;95325.50;1047553;28;20271;-70
2021/05/06 05:26:42;;;;;;;5.32;1.80;;;;;;;6.18;100.00;95321.38;1051380;28;20365;-70
2021/05/06 05:27:12;;;;;;;5.60;1.92;;;;;;;6.08;100.00;95297.81;1048758;28;20254;-70
2021/05/06 05:27:42;;;;;;;4.38;1.50;;;;;;;6.13;100.00;95321.31;1039985;28;20033;-71
2021/05/06 05:28:13;;;;;;;3.15;1.90;;;;;;;6.07;100.00;95317.06;1038994;28;20026;-70
2021/05/06 05:28:43;;;;;;;5.65;1.60;;;;;;;6.12;100.00;95311.91;1039268;28;20454;-72
2021/05/06 05:29:17;;;;;;;3.33;2.05;;;;;;;6.11;100.00;95312.97;1036553;28;20030;-70
2021/05/06 05:29:47;;;;;;;3.47;1.55;;;;;;;6.14;100.00;95320.28;1042969;28;20108;-71
2021/05/06 05:30:18;;;;;;;5.57;2.15;;;;;;;6.22;100.00;95319.06;1039463;28;20252;-72
2021/05/06 05:30:49;;;;;;;6.28;1.85;;;;;;;6.21;100.00;95313.06;1039824;28;20600;-69
2021/05/06 05:31:19;;;;;;;3.72;1.67;;;;;;;6.20;100.00;95300.28;1043771;28;20305;-72
2021/05/06 05:31:50;;;;;;;3.85;1.70;;;;;;;6.26;100.00;95315.72;1035234;28;20022;-72
2021/05/06 05:32:20;;;;;;;3.30;1.60;;;;;;;6.33;100.00;95313.69;1039526;28;20025;-72
2021/05/06 05:32:51;;;;;;;4.88;1.58;;;;;;;6.26;100.00;95304.50;1030956;28;20672;-71